Time;durP1;ratioP1;P1;durP2;ratioP2;P2;SDS_P1;SDS_P2;PMS_P1;PMS_P2;Temp;Humidity;BMP_temperature;BMP_pressure;BME280_temperature;BME280_humidity;BME280_pressure;Samples;Min_cycle;Max_cycle;Signal;HPM_P1;HPM_P2
2023/06/25 00:00:53;;;;;;;;;5.25;5.25;;;;;26.04;47.31;101384.06;4942783;28;45510;-70
2023/06/25 00:03:18;;;;;;;;;7.00;7.00;;;;;26.01;47.39;101389.81;4942633;28;45627;-70
2023/06/25 00:05:43;;;;;;;;;5.75;5.75;;;;;25.94;47.56;101385.84;4942458;28;45436;-70
2023/06/25 00:08:09;;;;;;;;;6.00;6.00;;;;;25.91;47.74;101389.75;4941992;28;45417;-70
2023/06/25 00:10:34;;;;;;;;;5.25;5.25;;;;;26.03;47.16;101418.78;4942922;28;45410;-70
2023/06/25 00:13:00;;;;;;;;;5.25;5.25;;;;;25.96;47.67;101397.56;4942937;28;45700;-70
2023/06/25 00:15:27;;;;;;;;;4.00;3.25;;;;;25.94;47.73;101403.13;4948614;28;45467;-70
2023/06/25 00:17:52;;;;;;;;;5.50;5.50;;;;;25.84;47.82;101381.22;4942055;28;45675;-70
2023/06/25 00:20:18;;;;;;;;;7.50;5.00;;;;;25.86;47.28;101378.31;4942435;28;45240;-70
2023/06/25 00:22:44;;;;;;;;;6.00;5.00;;;;;25.94;47.62;101397.66;4927860;28;45971;-70
2023/06/25 00:25:10;;;;;;;;;4.00;4.00;;;;;25.81;47.86;101373.28;4942001;28;46869;-70
2023/06/25 00:27:35;;;;;;;;;3.25;3.25;;;;;25.72;48.18;101363.13;4940872;28;45444;-70
2023/06/25 00:30:02;;;;;;;;;5.25;4.75;;;;;25.86;48.03;101390.13;4940827;28;45616;-70
2023/06/25 00:32:27;;;;;;;;;2.25;2.25;;;;;25.84;48.26;101388.53;4930753;28;45497;-70
2023/06/25 00:34:57;;;;;;;;;8.00;5.00;;;;;25.78;48.39;101379.00;4942253;28;45420;-70
2023/06/25 00:37:23;;;;;;;;;4.50;4.50;;;;;25.67;47.67;101368.13;4942045;28;45422;-69
2023/06/25 00:39:48;;;;;;;;;5.50;5.50;;;;;25.64;48.05;101371.09;4935222;28;45527;-70
2023/06/25 00:42:15;;;;;;;;;6.25;6.25;;;;;25.65;48.51;101375.59;4940248;28;45395;-70
2023/06/25 00:44:41;;;;;;;;;4.50;4.00;;;;;25.68;48.57;101381.66;4941389;28;46309;-70
2023/06/25 00:47:08;;;;;;;;;6.00;6.00;;;;;25.46;48.41;101336.19;4956614;28;45632;-70
2023/06/25 00:49:37;;;;;;;;;6.00;5.00;;;;;25.45;47.83;101342.63;4941817;28;45647;-70
2023/06/25 00:52:08;;;;;;;;;4.25;4.25;;;;;25.64;48.67;101377.47;4942079;28;45538;-70
2023/06/25 00:54:37;;;;;;;;;5.25;5.25;;;;;25.44;48.28;101351.84;4941865;28;46120;-70
2023/06/25 00:57:03;;;;;;;;;2.50;2.50;;;;;25.35;48.29;101344.44;4941671;28;45342;-70
2023/06/25 00:59:30;;;;;;;;;5.25;4.25;;;;;25.44;48.21;101360.06;4939775;28;45734;-70
2023/06/25 01:02:01;;;;;;;;;6.00;5.00;;;;;25.38;48.21;101346.03;4943440;28;45563;-70
2023/06/25 01:04:35;;;;;;;;;3.75;3.75;;;;;25.26;47.99;101323.31;4941667;28;46076;-70
2023/06/25 01:07:04;;;;;;;;;6.00;4.00;;;;;25.37;48.24;101342.44;4941313;28;45609;-70
2023/06/25 01:09:31;;;;;;;;;5.00;5.00;;;;;25.32;48.74;101336.50;4942092;28;45439;-70
2023/06/25 01:12:04;;;;;;;;;6.00;6.00;;;;;25.33;48.82;101338.25;4940144;28;45900;-70
2023/06/25 01:14:32;;;;;;;;;5.25;5.00;;;;;25.32;48.15;101329.16;4941328;28;45711;-70
2023/06/25 01:16:58;;;;;;;;;4.25;4.00;;;;;25.42;48.23;101342.03;4940833;28;45439;-70
2023/06/25 01:19:29;;;;;;;;;6.50;6.00;;;;;25.36;48.76;101332.50;4940225;28;45366;-70
2023/06/25 01:22:04;;;;;;;;;5.25;4.75;;;;;25.31;48.55;101329.31;4941345;28;45544;-70
2023/06/25 01:24:32;;;;;;;;;6.00;5.00;;;;;25.39;48.56;101343.16;4941102;28;45432;-70
2023/06/25 01:26:59;;;;;;;;;4.25;4.25;;;;;25.33;49.06;101335.50;4941517;28;45497;-70
2023/06/25 01:29:26;;;;;;;;;4.75;4.75;;;;;25.32;48.81;101337.34;4940568;28;45521;-70
2023/06/25 01:31:51;;;;;;;;;4.50;4.50;;;;;25.27;48.51;101336.03;4941334;28;45430;-70
2023/06/25 01:34:21;;;;;;;;;4.25;4.25;;;;;25.23;49.00;101326.34;4940979;28;45655;-70
2023/06/25 01:36:51;;;;;;;;;3.75;3.75;;;;;25.21;48.65;101317.38;4939252;28;45654;-70
2023/06/25 01:39:21;;;;;;;;;4.00;4.00;;;;;25.22;49.17;101327.31;4941093;28;46159;-70
2023/06/25 01:41:48;;;;;;;;;4.00;4.00;;;;;25.19;49.13;101322.97;4941272;28;45415;-70
2023/06/25 01:44:19;;;;;;;;;6.25;5.25;;;;;25.35;49.72;101351.78;4926509;28;47292;-70
2023/06/25 01:46:45;;;;;;;;;5.75;4.75;;;;;25.14;49.64;101320.66;4932651;28;46576;-70
2023/06/25 01:49:10;;;;;;;;;5.50;5.50;;;;;25.16;49.32;101326.00;4941026;28;45308;-70
2023/06/25 01:51:37;;;;;;;;;5.25;5.25;;;;;25.08;49.39;101303.91;4941292;28;45374;-70
2023/06/25 01:54:03;;;;;;;;;5.00;3.75;;;;;25.24;49.06;101331.66;4940943;28;46136;-70
2023/06/25 01:56:28;;;;;;;;;3.00;3.00;;;;;25.08;49.37;101315.69;4940956;28;45571;-70
2023/06/25 01:58:53;;;;;;;;;8.25;5.75;;;;;25.10;49.37;101312.84;4939914;28;45451;-70
2023/06/25 02:01:23;;;;;;;;;5.00;5.00;;;;;25.09;49.96;101302.91;4932879;28;45530;-70
2023/06/25 02:03:48;;;;;;;;;3.50;3.50;;;;;25.02;49.76;101294.38;4940591;28;48327;-70
2023/06/25 02:06:14;;;;;;;;;4.25;4.00;;;;;25.18;49.45;101325.88;4936487;28;46143;-70
2023/06/25 02:08:40;;;;;;;;;5.25;5.25;;;;;25.09;49.43;101311.09;4940877;28;45315;-70
2023/06/25 02:11:09;;;;;;;;;5.25;4.75;;;;;25.01;49.14;101300.84;4940587;28;45511;-70
2023/06/25 02:13:35;;;;;;;;;4.00;4.00;;;;;24.99;48.94;101299.22;4940609;28;46328;-70
2023/06/25 02:16:01;;;;;;;;;4.75;4.75;;;;;25.07;49.13;101313.97;4940493;28;45662;-70
2023/06/25 02:18:28;;;;;;;;;5.00;5.00;;;;;24.94;49.41;101292.31;4939457;28;45393;-70
2023/06/25 02:20:53;;;;;;;;;5.00;4.00;;;;;24.95;50.07;101291.28;4940797;28;45340;-70
2023/06/25 02:23:19;;;;;;;;;6.00;6.00;;;;;24.90;49.55;101279.03;4939962;28;45399;-70
2023/06/25 02:25:44;;;;;;;;;4.25;4.25;;;;;24.94;48.82;101277.75;4940507;28;45477;-70
2023/06/25 02:28:10;;;;;;;;;2.50;2.50;;;;;25.03;49.29;101295.25;4940742;28;45364;-70
2023/06/25 02:30:35;;;;;;;;;6.00;6.00;;;;;25.04;49.11;101306.06;4939860;28;45469;-70
2023/06/25 02:33:01;;;;;;;;;4.00;4.00;;;;;24.98;49.30;101294.78;4940351;28;46098;-70
2023/06/25 02:35:26;;;;;;;;;7.00;5.00;;;;;24.93;49.49;101284.25;4940441;28;45635;-70
2023/06/25 02:37:52;;;;;;;;;5.50;4.50;;;;;24.87;48.70;101271.09;4921237;28;45482;-70
2023/06/25 02:40:17;;;;;;;;;4.00;4.00;;;;;24.83;49.22;101264.19;4940545;28;45421;-70
2023/06/25 02:42:43;;;;;;;;;3.25;3.25;;;;;24.84;48.67;101263.16;4939591;28;46367;-70
2023/06/25 02:45:09;;;;;;;;;7.00;6.00;;;;;24.82;49.35;101259.69;4938496;28;45487;-70
2023/06/25 02:47:34;;;;;;;;;3.00;3.00;;;;;24.77;49.49;101249.16;4939326;28;45497;-70
2023/06/25 02:49:59;;;;;;;;;4.25;3.25;;;;;24.76;48.55;101251.03;4938696;28;46914;-70
2023/06/25 02:52:25;;;;;;;;;4.00;4.00;;;;;24.74;48.50;101252.16;4937508;28;47116;-70
2023/06/25 02:54:50;;;;;;;;;4.50;4.50;;;;;24.78;49.40;101253.63;4939312;28;45675;-70
2023/06/25 02:57:15;;;;;;;;;5.00;4.25;;;;;24.79;49.60;101260.81;4939910;28;45406;-70
2023/06/25 02:59:41;;;;;;;;;4.25;3.25;;;;;24.74;49.02;101257.59;4939929;28;45431;-70
2023/06/25 03:02:06;;;;;;;;;4.00;4.00;;;;;24.73;48.96;101255.88;4938685;28;46079;-70
2023/06/25 03:04:31;;;;;;;;;6.00;5.00;;;;;24.64;49.53;101243.91;4940121;28;45273;-70
2023/06/25 03:06:57;;;;;;;;;4.00;4.00;;;;;24.81;49.29;101275.22;4939779;28;45240;-70
2023/06/25 03:09:22;;;;;;;;;4.00;3.00;;;;;24.81;49.38;101280.69;4940300;28;45520;-70
2023/06/25 03:11:47;;;;;;;;;4.25;3.75;;;;;24.84;50.07;101285.88;4936629;28;47923;-70
2023/06/25 03:14:13;;;;;;;;;4.25;4.25;;;;;24.65;49.87;101261.13;4938200;28;45356;-70
2023/06/25 03:16:38;;;;;;;;;6.50;6.00;;;;;24.74;50.03;101279.44;4940064;28;45319;-70
2023/06/25 03:19:04;;;;;;;;;3.50;3.25;;;;;24.57;50.43;101259.03;4939651;28;45331;-70
2023/06/25 03:21:30;;;;;;;;;5.75;5.75;;;;;24.56;50.78;101260.91;4954588;28;47343;-70
2023/06/25 03:23:55;;;;;;;;;5.25;5.25;;;;;24.66;51.01;101277.38;4939716;28;45292;-70
2023/06/25 03:26:20;;;;;;;;;7.25;7.25;;;;;24.53;50.81;101255.66;4939646;28;45571;-70
2023/06/25 03:28:46;;;;;;;;;6.00;5.50;;;;;24.59;50.89;101266.09;4939114;28;45534;-70
2023/06/25 03:31:11;;;;;;;;;8.00;6.25;;;;;24.45;50.36;101240.94;4939395;28;46251;-70
2023/06/25 03:33:37;;;;;;;;;5.00;5.00;;;;;24.50;50.83;101252.31;4938290;28;45689;-70
2023/06/25 03:36:02;;;;;;;;;6.00;6.00;;;;;24.42;50.65;101239.31;4939654;28;45454;-70
2023/06/25 03:38:28;;;;;;;;;8.50;7.75;;;;;24.42;50.97;101240.19;4938102;28;45536;-70
2023/06/25 03:40:53;;;;;;;;;7.25;6.50;;;;;24.40;51.01;101244.88;4938401;28;48195;-70
2023/06/25 03:43:19;;;;;;;;;4.25;4.25;;;;;24.55;50.82;101269.22;4939604;28;45545;-70
2023/06/25 03:45:44;;;;;;;;;7.00;6.00;;;;;24.53;51.18;101265.72;4948015;28;45366;-70
2023/06/25 03:48:09;;;;;;;;;6.25;6.00;;;;;24.31;51.67;101234.75;4939520;28;45513;-70
2023/06/25 03:50:35;;;;;;;;;8.00;6.00;;;;;24.40;51.47;101260.41;4939642;28;45446;-70
2023/06/25 03:53:00;;;;;;;;;6.50;6.00;;;;;24.50;50.99;101265.97;4938165;28;45380;-70
2023/06/25 03:55:26;;;;;;;;;6.25;5.75;;;;;24.27;50.90;101237.84;4939746;28;45362;-70
2023/06/25 03:57:51;;;;;;;;;6.00;6.00;;;;;24.26;51.12;101242.47;4939530;28;45377;-70
2023/06/25 04:00:17;;;;;;;;;5.00;5.00;;;;;24.22;50.98;101243.69;4938987;28;46548;-70
2023/06/25 04:02:42;;;;;;;;;6.50;5.50;;;;;24.29;51.21;101247.66;4939433;28;45316;-70
2023/06/25 04:05:08;;;;;;;;;4.25;4.25;;;;;24.23;51.39;101237.25;4938744;28;45421;-70
2023/06/25 04:07:33;;;;;;;;;4.00;4.00;;;;;24.18;51.38;101240.34;4942696;28;45574;-70
2023/06/25 04:09:59;;;;;;;;;1.75;1.75;;;;;24.21;51.56;101244.69;4942603;28;45403;-70
2023/06/25 04:12:24;;;;;;;;;7.00;4.25;;;;;24.32;51.88;101269.22;4942689;28;45603;-70
2023/06/25 04:14:49;;;;;;;;;5.00;5.00;;;;;24.12;52.04;101234.53;4942463;28;45472;-70
2023/06/25 04:17:14;;;;;;;;;6.50;5.00;;;;;24.22;52.22;101254.59;4941942;28;45377;-70
2023/06/25 04:19:42;;;;;;;;;4.75;4.75;;;;;24.25;51.81;101259.81;4942215;28;46249;-70
2023/06/25 04:22:07;;;;;;;;;6.00;5.25;;;;;24.08;52.13;101239.38;4931091;28;45976;-70
2023/06/25 04:24:33;;;;;;;;;2.25;2.25;;;;;24.03;52.16;101231.56;4942398;28;45466;-70
2023/06/25 04:26:58;;;;;;;;;2.00;1.00;;;;;23.91;52.29;101213.50;4942443;28;45547;-70
2023/06/25 04:29:24;;;;;;;;;5.75;5.75;;;;;24.05;53.01;101234.16;4941447;28;45727;-70
2023/06/25 04:31:49;;;;;;;;;6.50;6.50;;;;;23.97;53.14;101233.91;4942282;28;45522;-70
2023/06/25 04:34:15;;;;;;;;;6.00;6.00;;;;;23.97;52.77;101234.81;4942289;28;45395;-70
2023/06/25 04:36:40;;;;;;;;;5.00;5.00;;;;;23.97;52.93;101236.66;4942222;28;45683;-70
2023/06/25 04:39:06;;;;;;;;;7.00;5.50;;;;;24.04;53.00;101243.34;4939301;28;48454;-70
2023/06/25 04:41:31;;;;;;;;;4.00;4.00;;;;;23.90;53.04;101225.38;4942483;28;45383;-70
2023/06/25 04:43:56;;;;;;;;;4.00;3.75;;;;;23.94;53.12;101239.63;4941878;28;45897;-70
2023/06/25 04:46:22;;;;;;;;;4.50;4.00;;;;;23.88;53.46;101230.09;4948022;28;45433;-70
2023/06/25 04:48:47;;;;;;;;;7.25;6.50;;;;;24.05;53.00;101266.88;4941909;28;46086;-70
2023/06/25 04:51:13;;;;;;;;;4.25;4.25;;;;;23.91;53.13;101243.47;4942103;28;45419;-70
2023/06/25 04:53:39;;;;;;;;;7.00;7.00;;;;;23.90;53.20;101241.72;4942030;28;45381;-70
2023/06/25 04:56:04;;;;;;;;;6.75;5.50;;;;;23.94;53.41;101247.78;4941721;28;45413;-70
2023/06/25 04:58:30;;;;;;;;;7.25;5.25;;;;;23.90;53.40;101246.31;4937199;28;47091;-70
2023/06/25 05:00:55;;;;;;;;;5.25;5.25;;;;;23.79;53.45;101228.06;4940702;28;45379;-70
2023/06/25 05:03:20;;;;;;;;;7.25;5.50;;;;;23.98;53.67;101262.94;4938953;28;45398;-70
2023/06/25 05:05:46;;;;;;;;;6.25;6.00;;;;;23.89;53.42;101252.75;4940811;28;45610;-70
2023/06/25 05:08:12;;;;;;;;;6.25;5.50;;;;;23.88;53.44;101245.59;4939245;28;45465;-70
2023/06/25 05:10:37;;;;;;;;;6.25;6.25;;;;;23.84;53.71;101244.97;4942838;28;46922;-70
2023/06/25 05:13:03;;;;;;;;;6.00;6.00;;;;;23.83;53.53;101248.69;4940054;28;45659;-71
2023/06/25 05:15:29;;;;;;;;;6.00;6.00;;;;;23.87;53.43;101255.59;4941292;28;45507;-70
2023/06/25 05:17:55;;;;;;;;;8.50;6.50;;;;;23.96;53.55;101263.06;4941025;28;45596;-70
2023/06/25 05:20:20;;;;;;;;;7.25;5.75;;;;;23.84;53.36;101255.88;4935926;28;45639;-70
2023/06/25 05:22:45;;;;;;;;;4.75;4.75;;;;;23.78;53.56;101238.09;4941537;28;45537;-70
2023/06/25 05:25:11;;;;;;;;;6.75;6.75;;;;;23.83;53.45;101251.41;4941641;28;45592;-70
2023/06/25 05:27:36;;;;;;;;;6.00;6.00;;;;;23.82;54.01;101238.75;4941290;28;45881;-70
2023/06/25 05:30:02;;;;;;;;;6.25;5.50;;;;;23.85;53.98;101250.28;4939348;28;45513;-70
2023/06/25 05:32:28;;;;;;;;;9.75;7.25;;;;;23.85;54.04;101247.53;4937509;28;45321;-70
2023/06/25 05:34:53;;;;;;;;;6.75;5.75;;;;;23.98;53.68;101277.41;4948421;28;45744;-70
2023/06/25 05:37:19;;;;;;;;;8.75;6.00;;;;;23.76;54.08;101241.97;4939413;28;47242;-70
2023/06/25 05:39:44;;;;;;;;;8.50;6.00;;;;;23.87;53.93;101261.06;4940531;28;45421;-70
2023/06/25 05:42:10;;;;;;;;;7.50;7.50;;;;;23.82;53.93;101249.66;4941342;28;45317;-70
2023/06/25 05:44:35;;;;;;;;;7.50;6.75;;;;;23.81;54.42;101245.19;4939589;28;45436;-70
2023/06/25 05:47:01;;;;;;;;;7.00;6.75;;;;;23.82;54.37;101256.00;4943078;28;46506;-70
2023/06/25 05:49:26;;;;;;;;;7.00;6.75;;;;;23.73;54.23;101234.03;4941288;28;45387;-70
2023/06/25 05:51:51;;;;;;;;;7.25;7.00;;;;;23.80;53.86;101254.34;4939776;28;45421;-70
2023/06/25 05:54:17;;;;;;;;;5.75;5.25;;;;;23.77;53.85;101247.28;4940919;28;45385;-70
2023/06/25 05:56:42;;;;;;;;;9.25;8.75;;;;;23.79;54.14;101244.41;4937752;28;45434;-70
2023/06/25 05:59:07;;;;;;;;;5.50;4.25;;;;;23.79;54.49;101247.13;4939969;28;45409;-70
2023/06/25 06:01:33;;;;;;;;;6.25;5.50;;;;;23.79;53.55;101247.13;4939646;28;45465;-70
2023/06/25 07:59:36;;;;;;;;;14.75;12.75;;;;;25.44;50.20;101217.94;6258214;22;1337007;-67
2023/06/25 08:02:02;;;;;;;;;9.25;8.50;;;;;25.45;50.17;101203.25;6307910;22;45348;-67
2023/06/25 08:04:27;;;;;;;;;11.25;8.75;;;;;25.54;50.35;101212.50;6306954;22;45734;-68
2023/06/25 08:06:52;;;;;;;;;11.25;9.25;;;;;25.76;50.45;101230.63;6308032;22;45442;-67
2023/06/25 08:09:18;;;;;;;;;8.00;8.00;;;;;25.68;49.92;101203.09;6308886;22;45198;-67
2023/06/25 08:11:44;;;;;;;;;11.00;11.00;;;;;25.81;49.67;101209.19;6308011;22;45184;-66
2023/06/25 08:14:09;;;;;;;;;7.75;7.75;;;;;25.87;50.06;101197.69;6308546;22;45436;-66
2023/06/25 08:16:34;;;;;;;;;10.25;10.25;;;;;26.09;49.16;101214.06;6306296;22;45864;-67
2023/06/25 08:19:00;;;;;;;;;10.25;10.00;;;;;26.17;48.84;101212.34;6307589;22;45416;-67
2023/06/25 08:21:25;;;;;;;;;11.25;11.25;;;;;26.06;49.05;101179.63;6308590;22;45355;-67
2023/06/25 08:23:51;;;;;;;;;10.25;10.00;;;;;26.17;49.67;101192.34;6308799;22;45574;-67
2023/06/25 08:26:17;;;;;;;;;11.75;11.50;;;;;26.24;49.03;101194.41;6307868;22;45322;-67
2023/06/25 08:28:42;;;;;;;;;12.50;11.75;;;;;26.35;48.75;101187.91;6306938;22;45815;-67
2023/06/25 08:31:09;;;;;;;;;10.50;10.50;;;;;26.43;47.84;101188.06;6308165;22;45452;-67
2023/06/25 08:33:35;;;;;;;;;13.25;11.75;;;;;26.58;48.10;101207.69;6307770;22;45310;-67
2023/06/25 08:36:03;;;;;;;;;9.00;9.00;;;;;26.65;48.08;101202.53;6308139;22;45334;-67
2023/06/25 08:38:30;;;;;;;;;10.75;9.25;;;;;26.61;48.41;101190.97;6306140;22;46435;-65
2023/06/25 08:40:56;;;;;;;;;14.50;10.25;;;;;26.71;48.47;101192.88;6307418;22;45329;-72
2023/06/25 08:43:21;;;;;;;;;9.75;9.75;;;;;26.75;47.89;101191.59;6307573;22;45688;-69
2023/06/25 08:45:47;;;;;;;;;14.00;12.25;;;;;26.83;48.29;101185.38;6306008;22;45360;-69
2023/06/25 08:48:16;;;;;;;;;11.25;10.25;;;;;26.90;47.72;101176.44;6306542;22;45440;-68
2023/06/25 08:50:45;;;;;;;;;8.25;8.25;;;;;26.97;46.94;101179.47;6308012;22;45373;-68
2023/06/25 08:53:11;;;;;;;;;11.75;11.75;;;;;27.03;47.82;101183.47;6307852;22;45322;-69
2023/06/25 08:55:38;;;;;;;;;14.25;13.00;;;;;26.93;47.12;101154.22;6307917;22;45468;-69
2023/06/25 08:58:28;;;;;;;;;12.50;12.50;;;;;27.14;47.00;101172.34;6304870;22;46385;-67
2023/06/25 09:00:54;;;;;;;;;14.00;14.00;;;;;27.09;46.87;101163.72;6305949;22;45523;-69
2023/06/25 09:03:19;;;;;;;;;10.75;10.75;;;;;27.18;45.92;101173.78;6306105;22;45388;-68
2023/06/25 09:05:55;;;;;;;;;10.50;10.50;;;;;27.14;46.60;101154.03;6308572;22;45261;-68
2023/06/25 09:08:25;;;;;;;;;11.50;11.25;;;;;27.28;46.70;101166.41;6305253;22;46152;-66
2023/06/25 09:10:52;;;;;;;;;12.50;12.00;;;;;27.39;46.67;101167.28;6307700;22;45368;-66
2023/06/25 09:13:30;;;;;;;;;11.50;11.00;;;;;27.50;46.16;101176.19;6302456;22;45323;-65
2023/06/25 09:16:07;;;;;;;;;11.25;11.25;;;;;27.60;45.57;101180.75;6302975;22;45829;-66
2023/06/25 09:18:32;;;;;;;;;11.00;11.00;;;;;27.62;44.79;101176.00;6303379;22;46656;-66
2023/06/25 09:21:06;;;;;;;;;10.75;10.75;;;;;27.75;44.66;101176.53;6303618;22;45425;-65
2023/06/25 09:23:31;;;;;;;;;10.00;10.00;;;;;27.56;44.89;101133.59;6303665;22;45576;-67
2023/06/25 09:25:58;;;;;;;;;12.00;12.00;;;;;27.89;45.18;101175.16;6302893;22;45666;-65
2023/06/25 09:28:24;;;;;;;;;12.25;12.25;;;;;27.80;44.69;101151.38;6303169;22;45456;-65
2023/06/25 09:30:54;;;;;;;;;11.75;10.75;;;;;28.01;44.07;101173.09;6303934;22;45624;-65
2023/06/25 09:33:20;;;;;;;;;11.25;11.25;;;;;28.09;43.61;101176.78;6304254;22;45660;-65
2023/06/25 09:35:45;;;;;;;;;11.50;11.50;;;;;28.15;44.26;101166.22;6303220;22;45366;-65
2023/06/25 09:38:10;;;;;;;;;9.75;9.75;;;;;28.08;43.83;101150.38;6303729;22;46361;-65
2023/06/25 09:40:36;;;;;;;;;12.25;11.00;;;;;28.09;44.39;101141.13;6304155;22;45677;-66
2023/06/25 09:43:05;;;;;;;;;12.75;10.75;;;;;28.14;44.50;101135.16;6301823;22;45403;-65
2023/06/25 09:45:31;;;;;;;;;13.75;13.25;;;;;28.25;42.59;101151.41;6303574;22;45302;-66
2023/06/25 09:47:57;;;;;;;;;8.25;7.00;;;;;28.09;42.07;101123.78;6303135;22;45676;-65
2023/06/25 09:50:26;;;;;;;;;10.25;10.25;;;;;28.24;42.84;101144.19;6304148;22;45408;-65
2023/06/25 09:52:56;;;;;;;;;11.50;11.50;;;;;28.39;41.02;101152.75;6303898;22;45428;-65
2023/06/25 09:55:21;;;;;;;;;10.25;9.00;;;;;28.33;40.81;101134.16;6303768;22;45435;-65
2023/06/25 09:57:48;;;;;;;;;9.00;9.00;;;;;28.41;40.67;101144.38;6303054;22;45989;-65
2023/06/25 10:00:15;;;;;;;;;8.50;8.50;;;;;28.53;40.65;101145.00;6301152;22;45515;-65
2023/06/25 10:02:41;;;;;;;;;10.50;9.75;;;;;28.45;40.48;101123.78;6304115;22;45689;-64
2023/06/25 10:05:07;;;;;;;;;13.75;12.50;;;;;28.59;40.64;101138.91;6303742;22;45409;-66
2023/06/25 10:07:32;;;;;;;;;5.75;5.00;;;;;28.53;39.83;101123.03;6303373;22;45571;-69
2023/06/25 10:09:58;;;;;;;;;9.75;9.75;;;;;28.59;40.35;101117.78;6301712;22;45654;-70
2023/06/25 10:12:23;;;;;;;;;7.75;7.75;;;;;28.75;39.98;101121.69;6303046;22;45485;-69
2023/06/25 10:14:49;;;;;;;;;13.00;11.00;;;;;28.73;39.04;101099.88;6303330;22;45713;-69
2023/06/25 10:17:14;;;;;;;;;11.00;9.75;;;;;28.75;39.08;101100.59;6301532;22;46269;-69
2023/06/25 10:19:52;;;;;;;;;8.75;8.75;;;;;28.75;39.16;101100.59;6303616;22;45647;-69
2023/06/25 10:22:25;;;;;;;;;10.25;9.75;;;;;28.72;38.98;101095.41;6303701;22;45570;-70
2023/06/25 10:24:52;;;;;;;;;11.50;11.25;;;;;28.81;39.22;101110.91;6308421;22;45446;-68
2023/06/25 10:27:26;;;;;;;;;10.00;10.00;;;;;28.75;38.82;101083.22;6307716;22;45444;-68
2023/06/25 10:29:59;;;;;;;;;12.50;11.00;;;;;28.94;38.43;101104.16;6308071;22;45252;-68
2023/06/25 10:32:26;;;;;;;;;11.00;11.00;;;;;28.93;38.03;101103.28;6307518;22;45255;-68
2023/06/25 10:34:56;;;;;;;;;10.25;9.75;;;;;28.98;38.16;101100.91;6307845;22;45400;-70
2023/06/25 10:37:27;;;;;;;;;12.75;11.00;;;;;29.01;38.26;101102.47;6307204;22;45576;-70
2023/06/25 10:40:01;;;;;;;;;7.75;7.75;;;;;29.01;37.79;101099.72;6308198;22;45235;-70
2023/06/25 10:42:29;;;;;;;;;9.50;9.50;;;;;29.02;37.91;101098.72;6308060;22;45328;-70
2023/06/25 10:44:54;;;;;;;;;9.50;8.75;;;;;29.07;37.36;101085.34;6307470;22;45409;-70
2023/06/25 10:47:20;;;;;;;;;12.25;11.75;;;;;29.15;37.42;101092.75;6306948;22;46239;-70
2023/06/25 10:49:45;;;;;;;;;10.75;10.50;;;;;29.11;37.15;101084.00;6307788;22;45455;-70
2023/06/25 10:52:10;;;;;;;;;5.75;5.75;;;;;29.14;37.39;101091.91;6307580;22;45376;-70
2023/06/25 10:54:36;;;;;;;;;11.25;10.00;;;;;29.12;37.11;101071.09;6307789;22;45361;-70
2023/06/25 10:57:13;;;;;;;;;11.75;11.00;;;;;29.26;37.35;101081.53;6307483;22;45967;-70
2023/06/25 10:59:39;;;;;;;;;9.50;9.50;;;;;29.20;36.47;101060.19;6306603;22;45590;-70
2023/06/25 11:02:19;;;;;;;;;9.50;9.50;;;;;29.29;36.39;101080.34;6307615;22;45298;-70
2023/06/25 11:04:56;;;;;;;;;11.50;10.50;;;;;29.25;37.31;101087.19;6307115;22;45393;-70
2023/06/25 11:07:23;;;;;;;;;11.25;11.25;;;;;29.31;36.63;101073.66;6305223;22;47021;-70
2023/06/25 11:09:55;;;;;;;;;9.75;9.75;;;;;29.51;37.13;101101.75;6307436;22;45331;-70
2023/06/25 11:12:22;;;;;;;;;7.25;7.25;;;;;29.42;36.45;101072.50;6307487;22;45341;-70
2023/06/25 11:14:48;;;;;;;;;8.75;8.75;;;;;29.36;36.58;101059.41;6307377;22;45531;-70
2023/06/25 11:17:14;;;;;;;;;13.00;9.00;;;;;29.50;35.83;101058.78;6306898;22;46556;-70
2023/06/25 11:19:39;;;;;;;;;9.00;9.00;;;;;29.54;35.73;101068.41;6307177;22;45352;-70
2023/06/25 11:22:07;;;;;;;;;7.75;7.75;;;;;29.58;36.13;101063.44;6308242;22;45581;-70
2023/06/25 11:24:36;;;;;;;;;9.25;8.25;;;;;29.73;35.57;101074.66;6308907;22;45477;-70
2023/06/25 11:27:03;;;;;;;;;10.25;10.25;;;;;29.75;35.11;101070.75;6309106;22;45354;-70
2023/06/25 11:29:39;;;;;;;;;9.00;9.00;;;;;29.69;34.96;101040.28;6309100;22;45467;-70
2023/06/25 11:32:08;;;;;;;;;9.50;9.25;;;;;29.86;35.22;101053.06;6309196;22;45341;-70
2023/06/25 11:34:34;;;;;;;;;9.00;9.00;;;;;29.89;35.33;101050.00;6308682;22;45245;-70
2023/06/25 11:37:14;;;;;;;;;9.00;9.00;;;;;29.96;34.93;101049.31;6308595;22;45645;-70
2023/06/25 11:39:44;;;;;;;;;10.50;9.00;;;;;30.06;35.01;101055.53;6309128;22;45199;-70
2023/06/25 11:42:15;;;;;;;;;10.00;10.00;;;;;30.03;34.90;101053.97;6307350;22;45346;-70
2023/06/25 11:44:41;;;;;;;;;9.75;9.00;;;;;30.05;34.37;101042.78;6308314;22;45428;-70
2023/06/25 11:47:06;;;;;;;;;9.75;9.50;;;;;30.19;34.18;101049.50;6308880;22;46077;-70
2023/06/25 11:49:32;;;;;;;;;10.50;9.25;;;;;30.06;34.44;101028.84;6309006;22;45277;-70
2023/06/25 11:52:00;;;;;;;;;9.00;9.00;;;;;30.16;34.57;101036.09;6308884;22;45169;-70
2023/06/25 11:54:25;;;;;;;;;9.50;9.50;;;;;30.24;34.71;101039.72;6309206;22;45388;-70
2023/06/25 11:56:50;;;;;;;;;10.50;10.50;;;;;30.26;34.94;101045.03;6308902;22;46457;-70
2023/06/25 11:59:16;;;;;;;;;11.25;11.25;;;;;30.24;34.38;101028.69;6308445;22;45350;-70
2023/06/25 12:01:41;;;;;;;;;11.00;11.00;;;;;30.35;34.13;101040.41;6309365;22;45427;-70
2023/06/25 12:04:07;;;;;;;;;11.25;9.75;;;;;30.50;34.52;101054.38;6309056;22;45413;-70
2023/06/25 12:06:32;;;;;;;;;8.50;8.50;;;;;30.35;34.45;101027.47;6307941;22;45348;-70
2023/06/25 12:08:58;;;;;;;;;11.25;11.25;;;;;30.50;34.81;101055.22;6308772;22;45371;-70
2023/06/25 12:11:23;;;;;;;;;11.00;11.00;;;;;30.40;34.49;101033.34;6307564;22;45582;-70
2023/06/25 12:13:48;;;;;;;;;11.50;11.50;;;;;30.53;34.43;101034.75;6308753;22;45385;-70
2023/06/25 12:16:14;;;;;;;;;11.00;11.00;;;;;30.49;34.43;101025.97;6308976;22;45241;-70
2023/06/25 12:18:39;;;;;;;;;13.00;12.00;;;;;30.50;34.27;101024.91;6308395;22;45282;-70
2023/06/25 12:21:05;;;;;;;;;12.75;11.75;;;;;30.48;34.21;101019.59;6309445;22;45243;-70
2023/06/25 12:23:30;;;;;;;;;12.25;11.00;;;;;30.52;35.11;101019.25;6308824;22;45413;-70
2023/06/25 12:25:55;;;;;;;;;14.00;13.00;;;;;30.51;34.76;101012.88;6308920;22;45239;-70
2023/06/25 12:28:20;;;;;;;;;11.25;11.25;;;;;30.73;35.35;101041.59;6308673;22;45317;-70
2023/06/25 12:30:46;;;;;;;;;11.25;11.25;;;;;30.58;34.97;101005.63;6307962;22;45505;-70
2023/06/25 12:33:12;;;;;;;;;11.50;10.50;;;;;30.73;34.67;101015.94;6308682;22;45406;-70
2023/06/25 12:35:37;;;;;;;;;11.50;11.50;;;;;30.67;34.80;100996.34;6307735;22;46497;-70
2023/06/25 12:38:03;;;;;;;;;11.25;11.25;;;;;30.83;34.64;101025.72;6308294;22;45258;-70
2023/06/25 12:40:28;;;;;;;;;10.75;10.50;;;;;30.72;34.18;101005.94;6306776;22;45776;-70
2023/06/25 12:42:56;;;;;;;;;9.50;9.00;;;;;30.65;34.29;100995.63;6308781;22;45229;-70
2023/06/25 12:45:21;;;;;;;;;13.00;11.25;;;;;30.69;34.56;101007.19;6308341;22;46099;-70
2023/06/25 12:47:47;;;;;;;;;9.25;8.75;;;;;30.80;34.42;101014.19;6308605;22;45455;-70
2023/06/25 12:50:12;;;;;;;;;10.25;10.25;;;;;30.78;34.07;101006.09;6309028;22;45426;-70
2023/06/25 12:52:38;;;;;;;;;12.00;9.25;;;;;30.81;34.06;101005.75;6308749;22;45369;-70
2023/06/25 12:55:05;;;;;;;;;10.00;10.00;;;;;30.98;33.76;101027.81;6308647;22;45347;-70
2023/06/25 12:57:33;;;;;;;;;9.00;9.00;;;;;30.87;33.39;101000.56;6306756;22;45370;-70
2023/06/25 12:59:58;;;;;;;;;13.50;11.75;;;;;30.87;33.77;100995.91;6307666;22;45332;-70
2023/06/25 13:02:24;;;;;;;;;12.75;12.75;;;;;30.90;33.53;100995.56;6308949;22;45473;-70
2023/06/25 13:04:49;;;;;;;;;11.00;10.00;;;;;30.87;33.74;100993.16;6305641;22;47009;-70
2023/06/25 13:07:14;;;;;;;;;7.50;7.50;;;;;30.78;33.95;100975.78;6307836;22;45234;-70
2023/06/25 13:09:40;;;;;;;;;10.00;10.00;;;;;30.86;33.90;100991.47;6308824;22;45334;-70
2023/06/25 13:12:05;;;;;;;;;10.50;10.50;;;;;31.05;33.44;101020.53;6308945;22;45514;-70